sensor_id;sensor_type;location;lat;lon;timestamp;temperature;humidity
22787;DHT22;63134;52.020;4.714;2023-10-08T00:00:02;19.20;93.70
22787;DHT22;63134;52.020;4.714;2023-10-08T00:03:07;19.20;93.80
22787;DHT22;63134;52.020;4.714;2023-10-08T00:05:56;19.20;94.10
22787;DHT22;63134;52.020;4.714;2023-10-08T00:08:41;19.20;94.00
22787;DHT22;63134;52.020;4.714;2023-10-08T00:11:27;19.20;94.10
22787;DHT22;63134;52.020;4.714;2023-10-08T00:14:16;19.20;94.30
22787;DHT22;63134;52.020;4.714;2023-10-08T00:17:08;19.20;94.00
22787;DHT22;63134;52.020;4.714;2023-10-08T00:19:56;19.20;94.30
22787;DHT22;63134;52.020;4.714;2023-10-08T00:22:45;19.20;94.20
22787;DHT22;63134;52.020;4.714;2023-10-08T00:25:32;19.20;94.30
22787;DHT22;63134;52.020;4.714;2023-10-08T00:28:20;19.30;94.30
22787;DHT22;63134;52.020;4.714;2023-10-08T00:31:06;19.30;94.10
22787;DHT22;63134;52.020;4.714;2023-10-08T00:33:57;19.40;94.00
22787;DHT22;63134;52.020;4.714;2023-10-08T00:36:45;19.40;94.00
22787;DHT22;63134;52.020;4.714;2023-10-08T00:39:35;19.40;93.90
22787;DHT22;63134;52.020;4.714;2023-10-08T00:42:23;19.40;93.70
22787;DHT22;63134;52.020;4.714;2023-10-08T00:45:10;19.40;93.60
22787;DHT22;63134;52.020;4.714;2023-10-08T00:47:58;19.50;93.60
22787;DHT22;63134;52.020;4.714;2023-10-08T00:50:45;19.50;93.60
22787;DHT22;63134;52.020;4.714;2023-10-08T00:53:36;19.50;93.50
22787;DHT22;63134;52.020;4.714;2023-10-08T00:56:27;19.50;93.40
22787;DHT22;63134;52.020;4.714;2023-10-08T00:59:32;19.50;93.30
22787;DHT22;63134;52.020;4.714;2023-10-08T01:02:25;19.50;93.20
22787;DHT22;63134;52.020;4.714;2023-10-08T01:05:15;19.50;93.20
22787;DHT22;63134;52.020;4.714;2023-10-08T01:08:12;19.50;93.10
22787;DHT22;63134;52.020;4.714;2023-10-08T01:11:30;19.50;93.10
22787;DHT22;63134;52.020;4.714;2023-10-08T01:14:31;19.50;93.10
22787;DHT22;63134;52.020;4.714;2023-10-08T01:17:18;19.40;93.00
22787;DHT22;63134;52.020;4.714;2023-10-08T01:20:10;19.40;93.00
22787;DHT22;63134;52.020;4.714;2023-10-08T01:23:18;19.40;93.00
22787;DHT22;63134;52.020;4.714;2023-10-08T01:26:08;19.40;93.00
22787;DHT22;63134;52.020;4.714;2023-10-08T01:28:57;19.40;93.00
22787;DHT22;63134;52.020;4.714;2023-10-08T01:31:46;19.40;93.00
22787;DHT22;63134;52.020;4.714;2023-10-08T01:34:32;19.40;93.00
22787;DHT22;63134;52.020;4.714;2023-10-08T01:37:21;19.40;93.00
22787;DHT22;63134;52.020;4.714;2023-10-08T01:40:07;19.50;93.00
22787;DHT22;63134;52.020;4.714;2023-10-08T01:42:53;19.50;93.00
22787;DHT22;63134;52.020;4.714;2023-10-08T01:45:38;19.40;92.90
22787;DHT22;63134;52.020;4.714;2023-10-08T01:48:26;19.40;92.90
22787;DHT22;63134;52.020;4.714;2023-10-08T01:51:22;19.40;92.90
22787;DHT22;63134;52.020;4.714;2023-10-08T01:54:13;19.40;92.90
22787;DHT22;63134;52.020;4.714;2023-10-08T01:57:00;19.40;92.90
22787;DHT22;63134;52.020;4.714;2023-10-08T01:59:45;19.40;93.00
22787;DHT22;63134;52.020;4.714;2023-10-08T02:02:31;19.40;93.00
22787;DHT22;63134;52.020;4.714;2023-10-08T02:05:20;19.40;93.00
22787;DHT22;63134;52.020;4.714;2023-10-08T02:08:06;19.40;93.00
22787;DHT22;63134;52.020;4.714;2023-10-08T02:10:52;19.40;93.10
22787;DHT22;63134;52.020;4.714;2023-10-08T02:13:38;19.40;93.20
22787;DHT22;63134;52.020;4.714;2023-10-08T02:16:23;19.40;93.20
22787;DHT22;63134;52.020;4.714;2023-10-08T02:19:09;19.40;93.30
22787;DHT22;63134;52.020;4.714;2023-10-08T02:21:57;19.40;93.30
22787;DHT22;63134;52.020;4.714;2023-10-08T02:24:43;19.30;93.40
22787;DHT22;63134;52.020;4.714;2023-10-08T02:27:29;19.30;93.50
22787;DHT22;63134;52.020;4.714;2023-10-08T02:30:18;19.30;93.60
22787;DHT22;63134;52.020;4.714;2023-10-08T02:33:03;19.30;93.70
22787;DHT22;63134;52.020;4.714;2023-10-08T02:35:48;19.30;93.70
22787;DHT22;63134;52.020;4.714;2023-10-08T02:38:35;19.30;93.70
22787;DHT22;63134;52.020;4.714;2023-10-08T02:41:24;19.30;93.70
22787;DHT22;63134;52.020;4.714;2023-10-08T02:44:10;19.30;93.80
22787;DHT22;63134;52.020;4.714;2023-10-08T02:47:00;19.30;93.80
22787;DHT22;63134;52.020;4.714;2023-10-08T02:49:46;19.30;93.80
22787;DHT22;63134;52.020;4.714;2023-10-08T02:52:34;19.20;93.90
22787;DHT22;63134;52.020;4.714;2023-10-08T02:55:20;19.20;93.90
22787;DHT22;63134;52.020;4.714;2023-10-08T02:58:20;19.20;93.90
22787;DHT22;63134;52.020;4.714;2023-10-08T03:01:07;19.20;93.90
22787;DHT22;63134;52.020;4.714;2023-10-08T03:03:58;19.20;94.10
22787;DHT22;63134;52.020;4.714;2023-10-08T03:06:50;19.10;94.10
22787;DHT22;63134;52.020;4.714;2023-10-08T03:09:36;19.10;94.00
22787;DHT22;63134;52.020;4.714;2023-10-08T03:12:26;19.10;94.20
22787;DHT22;63134;52.020;4.714;2023-10-08T03:15:12;19.10;94.20
22787;DHT22;63134;52.020;4.714;2023-10-08T03:18:18;19.10;94.20
22787;DHT22;63134;52.020;4.714;2023-10-08T03:21:07;19.00;94.10
22787;DHT22;63134;52.020;4.714;2023-10-08T03:24:09;19.00;94.20
22787;DHT22;63134;52.020;4.714;2023-10-08T03:27:09;19.00;94.30
22787;DHT22;63134;52.020;4.714;2023-10-08T03:30:00;19.00;94.30
22787;DHT22;63134;52.020;4.714;2023-10-08T03:32:47;19.00;94.30
22787;DHT22;63134;52.020;4.714;2023-10-08T03:35:46;18.90;94.20
22787;DHT22;63134;52.020;4.714;2023-10-08T03:38:32;18.90;94.30
22787;DHT22;63134;52.020;4.714;2023-10-08T03:41:31;18.90;94.40
22787;DHT22;63134;52.020;4.714;2023-10-08T03:44:19;18.90;94.40
22787;DHT22;63134;52.020;4.714;2023-10-08T03:47:06;18.80;94.40
22787;DHT22;63134;52.020;4.714;2023-10-08T03:49:57;18.80;94.40
22787;DHT22;63134;52.020;4.714;2023-10-08T03:52:51;18.80;94.60
22787;DHT22;63134;52.020;4.714;2023-10-08T03:55:36;18.80;94.70
22787;DHT22;63134;52.020;4.714;2023-10-08T03:58:25;18.80;94.70
22787;DHT22;63134;52.020;4.714;2023-10-08T04:01:15;18.80;94.90
22787;DHT22;63134;52.020;4.714;2023-10-08T04:04:05;18.70;94.90
22787;DHT22;63134;52.020;4.714;2023-10-08T04:06:51;18.70;94.90
22787;DHT22;63134;52.020;4.714;2023-10-08T04:09:39;18.70;94.90
22787;DHT22;63134;52.020;4.714;2023-10-08T04:12:27;18.70;94.90
22787;DHT22;63134;52.020;4.714;2023-10-08T04:15:13;18.70;95.20
22787;DHT22;63134;52.020;4.714;2023-10-08T04:18:03;18.70;95.40
22787;DHT22;63134;52.020;4.714;2023-10-08T04:20:50;18.60;95.40
22787;DHT22;63134;52.020;4.714;2023-10-08T04:23:47;18.60;95.60
22787;DHT22;63134;52.020;4.714;2023-10-08T04:26:38;18.60;95.60
22787;DHT22;63134;52.020;4.714;2023-10-08T04:29:26;18.50;95.60
22787;DHT22;63134;52.020;4.714;2023-10-08T04:32:12;18.50;95.90
22787;DHT22;63134;52.020;4.714;2023-10-08T04:35:08;18.50;96.20
22787;DHT22;63134;52.020;4.714;2023-10-08T04:38:00;18.50;96.30
22787;DHT22;63134;52.020;4.714;2023-10-08T04:40:46;18.50;96.40
22787;DHT22;63134;52.020;4.714;2023-10-08T04:43:37;18.50;96.50
22787;DHT22;63134;52.020;4.714;2023-10-08T04:46:23;18.50;96.50
22787;DHT22;63134;52.020;4.714;2023-10-08T04:49:23;18.40;96.50
22787;DHT22;63134;52.020;4.714;2023-10-08T04:52:13;18.50;96.70
22787;DHT22;63134;52.020;4.714;2023-10-08T04:55:16;18.50;97.10
22787;DHT22;63134;52.020;4.714;2023-10-08T04:58:05;18.60;97.00
22787;DHT22;63134;52.020;4.714;2023-10-08T05:00:57;18.60;96.40
22787;DHT22;63134;52.020;4.714;2023-10-08T05:03:47;18.50;95.70
22787;DHT22;63134;52.020;4.714;2023-10-08T05:06:44;18.40;95.80
22787;DHT22;63134;52.020;4.714;2023-10-08T05:09:30;18.30;96.00
22787;DHT22;63134;52.020;4.714;2023-10-08T05:12:33;18.30;96.00
22787;DHT22;63134;52.020;4.714;2023-10-08T05:15:18;18.30;96.00
22787;DHT22;63134;52.020;4.714;2023-10-08T05:18:18;18.20;96.00
22787;DHT22;63134;52.020;4.714;2023-10-08T05:21:03;18.20;96.30
22787;DHT22;63134;52.020;4.714;2023-10-08T05:24:09;18.10;95.80
22787;DHT22;63134;52.020;4.714;2023-10-08T05:26:58;18.10;95.80
22787;DHT22;63134;52.020;4.714;2023-10-08T05:30:04;18.00;95.80
22787;DHT22;63134;52.020;4.714;2023-10-08T05:33:10;18.00;95.80
22787;DHT22;63134;52.020;4.714;2023-10-08T05:36:02;17.90;95.80
22787;DHT22;63134;52.020;4.714;2023-10-08T05:38:55;17.90;95.80
22787;DHT22;63134;52.020;4.714;2023-10-08T05:41:50;17.90;96.00
22787;DHT22;63134;52.020;4.714;2023-10-08T05:44:58;17.90;96.00
22787;DHT22;63134;52.020;4.714;2023-10-08T05:47:55;17.90;96.00
22787;DHT22;63134;52.020;4.714;2023-10-08T05:51:06;17.90;96.00
22787;DHT22;63134;52.020;4.714;2023-10-08T05:53:59;17.80;96.00
22787;DHT22;63134;52.020;4.714;2023-10-08T05:56:44;17.80;95.40
22787;DHT22;63134;52.020;4.714;2023-10-08T05:59:51;17.70;95.50
22787;DHT22;63134;52.020;4.714;2023-10-08T06:02:43;17.70;95.70
22787;DHT22;63134;52.020;4.714;2023-10-08T06:05:31;17.70;95.60
22787;DHT22;63134;52.020;4.714;2023-10-08T06:08:30;17.60;95.70
22787;DHT22;63134;52.020;4.714;2023-10-08T06:11:35;17.60;95.70
22787;DHT22;63134;52.020;4.714;2023-10-08T06:14:42;17.70;96.10
22787;DHT22;63134;52.020;4.714;2023-10-08T06:17:38;17.70;95.80
22787;DHT22;63134;52.020;4.714;2023-10-08T06:20:48;17.60;96.00
22787;DHT22;63134;52.020;4.714;2023-10-08T06:23:35;17.60;96.00
22787;DHT22;63134;52.020;4.714;2023-10-08T06:26:22;17.60;96.10
22787;DHT22;63134;52.020;4.714;2023-10-08T06:29:11;17.60;96.10
22787;DHT22;63134;52.020;4.714;2023-10-08T06:32:14;17.60;95.90
22787;DHT22;63134;52.020;4.714;2023-10-08T06:35:00;17.60;96.00
22787;DHT22;63134;52.020;4.714;2023-10-08T06:37:50;17.60;95.80
22787;DHT22;63134;52.020;4.714;2023-10-08T06:40:40;17.60;95.90
22787;DHT22;63134;52.020;4.714;2023-10-08T06:43:29;17.50;95.90
22787;DHT22;63134;52.020;4.714;2023-10-08T06:46:15;17.50;96.10
22787;DHT22;63134;52.020;4.714;2023-10-08T06:49:02;17.50;96.20
22787;DHT22;63134;52.020;4.714;2023-10-08T06:51:51;17.50;96.00
22787;DHT22;63134;52.020;4.714;2023-10-08T06:54:37;17.50;96.10
22787;DHT22;63134;52.020;4.714;2023-10-08T06:57:22;17.50;96.50
22787;DHT22;63134;52.020;4.714;2023-10-08T07:00:12;17.60;96.30
22787;DHT22;63134;52.020;4.714;2023-10-08T07:03:18;17.60;95.90
22787;DHT22;63134;52.020;4.714;2023-10-08T07:06:06;17.60;95.80
22787;DHT22;63134;52.020;4.714;2023-10-08T07:09:10;17.70;96.30
22787;DHT22;63134;52.020;4.714;2023-10-08T07:12:15;17.80;95.80
22787;DHT22;63134;52.020;4.714;2023-10-08T07:15:31;17.70;95.40
22787;DHT22;63134;52.020;4.714;2023-10-08T07:18:18;17.70;95.20
22787;DHT22;63134;52.020;4.714;2023-10-08T07:21:22;17.60;95.40
22787;DHT22;63134;52.020;4.714;2023-10-08T07:24:14;17.70;95.70
22787;DHT22;63134;52.020;4.714;2023-10-08T07:27:48;17.70;95.40
22787;DHT22;63134;52.020;4.714;2023-10-08T07:30:38;17.60;94.70
22787;DHT22;63134;52.020;4.714;2023-10-08T07:33:29;17.60;94.60
22787;DHT22;63134;52.020;4.714;2023-10-08T07:36:23;17.50;94.50
22787;DHT22;63134;52.020;4.714;2023-10-08T07:39:09;17.50;94.70
22787;DHT22;63134;52.020;4.714;2023-10-08T07:42:07;17.50;94.80
22787;DHT22;63134;52.020;4.714;2023-10-08T07:44:53;17.40;94.50
22787;DHT22;63134;52.020;4.714;2023-10-08T07:47:40;17.40;94.50
22787;DHT22;63134;52.020;4.714;2023-10-08T07:50:25;17.40;94.60
22787;DHT22;63134;52.020;4.714;2023-10-08T07:53:14;17.60;95.20
22787;DHT22;63134;52.020;4.714;2023-10-08T07:56:04;17.60;94.80
22787;DHT22;63134;52.020;4.714;2023-10-08T07:58:52;17.80;94.80
22787;DHT22;63134;52.020;4.714;2023-10-08T08:01:41;17.80;94.40
22787;DHT22;63134;52.020;4.714;2023-10-08T08:04:32;17.90;94.60
22787;DHT22;63134;52.020;4.714;2023-10-08T08:07:19;18.00;94.50
22787;DHT22;63134;52.020;4.714;2023-10-08T08:10:07;18.00;94.80
22787;DHT22;63134;52.020;4.714;2023-10-08T08:12:56;18.10;94.40
22787;DHT22;63134;52.020;4.714;2023-10-08T08:15:42;18.10;94.40
22787;DHT22;63134;52.020;4.714;2023-10-08T08:18:34;18.20;94.10
22787;DHT22;63134;52.020;4.714;2023-10-08T08:21:20;18.20;93.80
22787;DHT22;63134;52.020;4.714;2023-10-08T08:24:08;18.30;93.90
22787;DHT22;63134;52.020;4.714;2023-10-08T08:26:55;18.40;93.80
22787;DHT22;63134;52.020;4.714;2023-10-08T08:29:56;18.50;94.00
22787;DHT22;63134;52.020;4.714;2023-10-08T08:32:48;18.50;93.90
22787;DHT22;63134;52.020;4.714;2023-10-08T08:35:38;18.60;93.50
22787;DHT22;63134;52.020;4.714;2023-10-08T08:38:24;18.60;93.50
22787;DHT22;63134;52.020;4.714;2023-10-08T08:41:09;18.70;93.30
22787;DHT22;63134;52.020;4.714;2023-10-08T08:43:57;18.70;92.90
22787;DHT22;63134;52.020;4.714;2023-10-08T08:46:46;18.60;92.90
22787;DHT22;63134;52.020;4.714;2023-10-08T08:49:33;18.70;92.80
22787;DHT22;63134;52.020;4.714;2023-10-08T08:52:19;18.80;92.80
22787;DHT22;63134;52.020;4.714;2023-10-08T08:55:06;18.80;93.00
22787;DHT22;63134;52.020;4.714;2023-10-08T08:57:59;18.90;93.00
22787;DHT22;63134;52.020;4.714;2023-10-08T09:00:47;19.10;93.10
22787;DHT22;63134;52.020;4.714;2023-10-08T09:03:38;19.20;93.10
22787;DHT22;63134;52.020;4.714;2023-10-08T09:06:25;19.30;92.60
22787;DHT22;63134;52.020;4.714;2023-10-08T09:09:10;19.40;92.30
22787;DHT22;63134;52.020;4.714;2023-10-08T09:12:09;19.50;91.80
22787;DHT22;63134;52.020;4.714;2023-10-08T09:15:01;19.60;91.60
22787;DHT22;63134;52.020;4.714;2023-10-08T09:17:48;19.80;92.00
22787;DHT22;63134;52.020;4.714;2023-10-08T09:20:37;19.90;91.70
22787;DHT22;63134;52.020;4.714;2023-10-08T09:23:29;20.00;91.40
22787;DHT22;63134;52.020;4.714;2023-10-08T09:26:17;20.00;90.70
22787;DHT22;63134;52.020;4.714;2023-10-08T09:29:07;20.10;90.60
22787;DHT22;63134;52.020;4.714;2023-10-08T09:31:55;20.20;90.60
22787;DHT22;63134;52.020;4.714;2023-10-08T09:34:44;20.30;90.70
22787;DHT22;63134;52.020;4.714;2023-10-08T09:37:29;20.50;90.90
22787;DHT22;63134;52.020;4.714;2023-10-08T09:40:17;20.70;90.80
22787;DHT22;63134;52.020;4.714;2023-10-08T09:43:06;20.90;90.40
22787;DHT22;63134;52.020;4.714;2023-10-08T09:46:09;20.90;90.10
22787;DHT22;63134;52.020;4.714;2023-10-08T09:48:59;21.00;89.90
22787;DHT22;63134;52.020;4.714;2023-10-08T09:51:46;21.00;88.40
22787;DHT22;63134;52.020;4.714;2023-10-08T09:54:48;21.10;89.80
22787;DHT22;63134;52.020;4.714;2023-10-08T09:57:34;21.20;88.50
22787;DHT22;63134;52.020;4.714;2023-10-08T10:00:26;21.20;88.40
22787;DHT22;63134;52.020;4.714;2023-10-08T10:03:19;21.30;87.60
22787;DHT22;63134;52.020;4.714;2023-10-08T10:06:12;21.40;88.00
22787;DHT22;63134;52.020;4.714;2023-10-08T10:09:00;21.40;87.70
22787;DHT22;63134;52.020;4.714;2023-10-08T10:11:49;21.50;87.30
22787;DHT22;63134;52.020;4.714;2023-10-08T10:14:47;21.60;87.30
22787;DHT22;63134;52.020;4.714;2023-10-08T10:17:33;21.70;87.10
22787;DHT22;63134;52.020;4.714;2023-10-08T10:20:31;21.70;86.60
22787;DHT22;63134;52.020;4.714;2023-10-08T10:23:40;21.60;85.70
22787;DHT22;63134;52.020;4.714;2023-10-08T10:26:30;21.50;86.20
22787;DHT22;63134;52.020;4.714;2023-10-08T10:29:18;21.40;86.10
22787;DHT22;63134;52.020;4.714;2023-10-08T10:32:04;21.40;85.90
22787;DHT22;63134;52.020;4.714;2023-10-08T10:34:51;21.30;85.40
22787;DHT22;63134;52.020;4.714;2023-10-08T10:37:38;21.10;85.20
22787;DHT22;63134;52.020;4.714;2023-10-08T10:40:26;21.00;85.80
22787;DHT22;63134;52.020;4.714;2023-10-08T10:43:25;20.90;86.00
22787;DHT22;63134;52.020;4.714;2023-10-08T10:46:18;20.90;85.90
22787;DHT22;63134;52.020;4.714;2023-10-08T10:49:20;21.00;86.00
22787;DHT22;63134;52.020;4.714;2023-10-08T10:52:17;21.00;85.90
22787;DHT22;63134;52.020;4.714;2023-10-08T10:55:18;21.10;85.60
22787;DHT22;63134;52.020;4.714;2023-10-08T10:58:06;21.20;85.40
22787;DHT22;63134;52.020;4.714;2023-10-08T11:00:57;21.30;85.70
22787;DHT22;63134;52.020;4.714;2023-10-08T11:03:44;21.50;84.70
22787;DHT22;63134;52.020;4.714;2023-10-08T11:06:31;21.80;85.30
22787;DHT22;63134;52.020;4.714;2023-10-08T11:09:25;22.00;83.90
22787;DHT22;63134;52.020;4.714;2023-10-08T11:12:24;22.30;83.40
22787;DHT22;63134;52.020;4.714;2023-10-08T11:15:28;22.50;82.90
22787;DHT22;63134;52.020;4.714;2023-10-08T11:18:26;22.80;82.20
22787;DHT22;63134;52.020;4.714;2023-10-08T11:21:15;22.90;81.00
22787;DHT22;63134;52.020;4.714;2023-10-08T11:24:02;23.20;80.80
22787;DHT22;63134;52.020;4.714;2023-10-08T11:26:54;23.30;80.00
22787;DHT22;63134;52.020;4.714;2023-10-08T11:29:52;23.50;79.70
22787;DHT22;63134;52.020;4.714;2023-10-08T11:32:43;23.60;79.50
22787;DHT22;63134;52.020;4.714;2023-10-08T11:35:34;23.90;78.30
22787;DHT22;63134;52.020;4.714;2023-10-08T11:38:20;24.30;78.50
22787;DHT22;63134;52.020;4.714;2023-10-08T11:41:15;24.60;77.30
22787;DHT22;63134;52.020;4.714;2023-10-08T11:44:07;24.50;76.10
22787;DHT22;63134;52.020;4.714;2023-10-08T11:46:59;24.60;75.70
22787;DHT22;63134;52.020;4.714;2023-10-08T11:49:57;24.60;75.30
22787;DHT22;63134;52.020;4.714;2023-10-08T11:53:03;24.70;75.20
22787;DHT22;63134;52.020;4.714;2023-10-08T11:55:50;24.70;75.50
22787;DHT22;63134;52.020;4.714;2023-10-08T11:58:42;25.00;75.10
22787;DHT22;63134;52.020;4.714;2023-10-08T12:01:30;25.00;73.50
22787;DHT22;63134;52.020;4.714;2023-10-08T12:04:22;24.90;73.10
22787;DHT22;63134;52.020;4.714;2023-10-08T12:07:08;24.90;72.30
22787;DHT22;63134;52.020;4.714;2023-10-08T12:09:54;24.90;72.70
22787;DHT22;63134;52.020;4.714;2023-10-08T12:12:39;25.10;72.30
22787;DHT22;63134;52.020;4.714;2023-10-08T12:15:26;25.30;72.00
22787;DHT22;63134;52.020;4.714;2023-10-08T12:18:24;25.30;71.10
22787;DHT22;63134;52.020;4.714;2023-10-08T12:21:22;25.30;70.30
22787;DHT22;63134;52.020;4.714;2023-10-08T12:24:09;25.20;69.80
22787;DHT22;63134;52.020;4.714;2023-10-08T12:26:58;25.00;69.00
22787;DHT22;63134;52.020;4.714;2023-10-08T12:29:44;24.90;68.00
22787;DHT22;63134;52.020;4.714;2023-10-08T12:32:29;24.90;68.30
22787;DHT22;63134;52.020;4.714;2023-10-08T12:35:16;25.00;68.80
22787;DHT22;63134;52.020;4.714;2023-10-08T12:38:02;25.20;67.90
22787;DHT22;63134;52.020;4.714;2023-10-08T12:40:50;25.40;67.50
22787;DHT22;63134;52.020;4.714;2023-10-08T12:43:43;25.40;67.30
22787;DHT22;63134;52.020;4.714;2023-10-08T12:46:38;25.30;66.70
22787;DHT22;63134;52.020;4.714;2023-10-08T12:49:24;25.00;66.40
22787;DHT22;63134;52.020;4.714;2023-10-08T12:52:10;24.60;66.90
22787;DHT22;63134;52.020;4.714;2023-10-08T12:54:58;24.30;67.20
22787;DHT22;63134;52.020;4.714;2023-10-08T12:57:50;24.10;68.00
22787;DHT22;63134;52.020;4.714;2023-10-08T13:00:40;24.00;68.10
22787;DHT22;63134;52.020;4.714;2023-10-08T13:03:27;24.10;68.20
22787;DHT22;63134;52.020;4.714;2023-10-08T13:06:18;24.20;68.50
22787;DHT22;63134;52.020;4.714;2023-10-08T13:09:15;24.20;68.00
22787;DHT22;63134;52.020;4.714;2023-10-08T13:12:01;24.00;67.70
22787;DHT22;63134;52.020;4.714;2023-10-08T13:14:50;23.80;67.80
22787;DHT22;63134;52.020;4.714;2023-10-08T13:17:36;23.70;68.30
22787;DHT22;63134;52.020;4.714;2023-10-08T13:20:22;23.50;67.70
22787;DHT22;63134;52.020;4.714;2023-10-08T13:23:08;23.40;68.50
22787;DHT22;63134;52.020;4.714;2023-10-08T13:25:55;23.50;69.10
22787;DHT22;63134;52.020;4.714;2023-10-08T13:28:44;23.40;69.00
22787;DHT22;63134;52.020;4.714;2023-10-08T13:31:30;23.50;69.20
22787;DHT22;63134;52.020;4.714;2023-10-08T13:34:15;23.50;68.60
22787;DHT22;63134;52.020;4.714;2023-10-08T13:37:01;23.60;68.80
22787;DHT22;63134;52.020;4.714;2023-10-08T13:39:47;23.70;68.90
22787;DHT22;63134;52.020;4.714;2023-10-08T13:42:32;23.70;68.80
22787;DHT22;63134;52.020;4.714;2023-10-08T13:45:18;23.70;68.40
22787;DHT22;63134;52.020;4.714;2023-10-08T13:48:15;23.60;68.50
22787;DHT22;63134;52.020;4.714;2023-10-08T13:51:02;23.50;68.40
22787;DHT22;63134;52.020;4.714;2023-10-08T13:53:58;23.50;69.00
22787;DHT22;63134;52.020;4.714;2023-10-08T13:56:48;23.50;69.10
22787;DHT22;63134;52.020;4.714;2023-10-08T13:59:35;23.60;69.70
22787;DHT22;63134;52.020;4.714;2023-10-08T14:02:20;23.80;69.50
22787;DHT22;63134;52.020;4.714;2023-10-08T14:05:10;24.00;68.70
22787;DHT22;63134;52.020;4.714;2023-10-08T14:07:55;24.10;68.10
22787;DHT22;63134;52.020;4.714;2023-10-08T14:10:47;24.00;67.80
22787;DHT22;63134;52.020;4.714;2023-10-08T14:13:33;23.80;67.90
22787;DHT22;63134;52.020;4.714;2023-10-08T14:16:21;23.60;68.50
22787;DHT22;63134;52.020;4.714;2023-10-08T14:19:17;23.50;68.20
22787;DHT22;63134;52.020;4.714;2023-10-08T14:22:03;23.40;68.60
22787;DHT22;63134;52.020;4.714;2023-10-08T14:24:49;23.30;68.80
22787;DHT22;63134;52.020;4.714;2023-10-08T14:27:46;23.30;69.10
22787;DHT22;63134;52.020;4.714;2023-10-08T14:30:37;23.40;69.00
22787;DHT22;63134;52.020;4.714;2023-10-08T14:33:26;23.60;69.20
22787;DHT22;63134;52.020;4.714;2023-10-08T14:36:17;23.50;68.40
22787;DHT22;63134;52.020;4.714;2023-10-08T14:39:21;23.40;68.40
22787;DHT22;63134;52.020;4.714;2023-10-08T14:42:25;23.40;69.00
22787;DHT22;63134;52.020;4.714;2023-10-08T14:45:30;23.50;69.10
22787;DHT22;63134;52.020;4.714;2023-10-08T14:48:21;23.50;68.70
22787;DHT22;63134;52.020;4.714;2023-10-08T14:51:08;23.50;68.80
22787;DHT22;63134;52.020;4.714;2023-10-08T14:54:02;23.50;68.70
22787;DHT22;63134;52.020;4.714;2023-10-08T14:56:47;23.60;69.10
22787;DHT22;63134;52.020;4.714;2023-10-08T14:59:34;23.60;68.70
22787;DHT22;63134;52.020;4.714;2023-10-08T15:02:20;23.60;68.80
22787;DHT22;63134;52.020;4.714;2023-10-08T15:05:06;23.70;68.90
22787;DHT22;63134;52.020;4.714;2023-10-08T15:07:52;23.80;68.90
22787;DHT22;63134;52.020;4.714;2023-10-08T15:10:38;23.90;68.70
22787;DHT22;63134;52.020;4.714;2023-10-08T15:13:24;24.10;68.40
22787;DHT22;63134;52.020;4.714;2023-10-08T15:16:10;24.20;68.40
22787;DHT22;63134;52.020;4.714;2023-10-08T15:19:00;24.10;68.00
22787;DHT22;63134;52.020;4.714;2023-10-08T15:21:57;23.90;68.00
22787;DHT22;63134;52.020;4.714;2023-10-08T15:24:43;23.70;68.50
22787;DHT22;63134;52.020;4.714;2023-10-08T15:27:30;23.50;68.60
22787;DHT22;63134;52.020;4.714;2023-10-08T15:30:18;23.40;68.60
22787;DHT22;63134;52.020;4.714;2023-10-08T15:33:06;23.20;68.80
22787;DHT22;63134;52.020;4.714;2023-10-08T15:35:52;23.00;69.10
22787;DHT22;63134;52.020;4.714;2023-10-08T15:38:38;22.80;69.20
22787;DHT22;63134;52.020;4.714;2023-10-08T15:41:24;22.70;69.80
22787;DHT22;63134;52.020;4.714;2023-10-08T15:44:09;22.60;70.00
22787;DHT22;63134;52.020;4.714;2023-10-08T15:46:55;22.50;70.10
22787;DHT22;63134;52.020;4.714;2023-10-08T15:49:41;22.30;70.30
22787;DHT22;63134;52.020;4.714;2023-10-08T15:52:27;22.10;70.60
22787;DHT22;63134;52.020;4.714;2023-10-08T15:55:13;22.00;71.10
22787;DHT22;63134;52.020;4.714;2023-10-08T15:57:59;21.80;70.70
22787;DHT22;63134;52.020;4.714;2023-10-08T16:00:44;21.60;71.30
22787;DHT22;63134;52.020;4.714;2023-10-08T16:03:30;21.40;71.50
22787;DHT22;63134;52.020;4.714;2023-10-08T16:06:17;21.30;72.00
22787;DHT22;63134;52.020;4.714;2023-10-08T16:09:06;21.20;72.30
22787;DHT22;63134;52.020;4.714;2023-10-08T16:11:55;21.10;72.60
22787;DHT22;63134;52.020;4.714;2023-10-08T16:14:44;21.00;72.90
22787;DHT22;63134;52.020;4.714;2023-10-08T16:17:33;20.90;73.10
22787;DHT22;63134;52.020;4.714;2023-10-08T16:20:18;20.80;73.20
22787;DHT22;63134;52.020;4.714;2023-10-08T16:23:06;20.70;73.50
22787;DHT22;63134;52.020;4.714;2023-10-08T16:25:52;20.60;73.60
22787;DHT22;63134;52.020;4.714;2023-10-08T16:28:43;20.40;73.90
22787;DHT22;63134;52.020;4.714;2023-10-08T16:31:29;20.30;74.20
22787;DHT22;63134;52.020;4.714;2023-10-08T16:34:18;20.20;74.40
22787;DHT22;63134;52.020;4.714;2023-10-08T16:37:04;20.20;74.70
22787;DHT22;63134;52.020;4.714;2023-10-08T16:39:50;20.00;74.80
22787;DHT22;63134;52.020;4.714;2023-10-08T16:42:39;19.90;75.00
22787;DHT22;63134;52.020;4.714;2023-10-08T16:45:26;19.80;75.40
22787;DHT22;63134;52.020;4.714;2023-10-08T16:48:13;19.60;75.60
22787;DHT22;63134;52.020;4.714;2023-10-08T16:51:01;19.50;76.10
22787;DHT22;63134;52.020;4.714;2023-10-08T16:53:49;19.30;76.30
22787;DHT22;63134;52.020;4.714;2023-10-08T16:56:35;19.20;76.60
22787;DHT22;63134;52.020;4.714;2023-10-08T16:59:21;19.00;76.90
22787;DHT22;63134;52.020;4.714;2023-10-08T17:02:06;18.90;77.30
22787;DHT22;63134;52.020;4.714;2023-10-08T17:04:52;18.80;77.70
22787;DHT22;63134;52.020;4.714;2023-10-08T17:07:38;18.70;77.90
22787;DHT22;63134;52.020;4.714;2023-10-08T17:10:23;18.60;78.20
22787;DHT22;63134;52.020;4.714;2023-10-08T17:13:15;18.50;78.40
22787;DHT22;63134;52.020;4.714;2023-10-08T17:16:01;18.30;78.70
22787;DHT22;63134;52.020;4.714;2023-10-08T17:18:50;18.30;79.00
22787;DHT22;63134;52.020;4.714;2023-10-08T17:21:36;18.20;79.30
22787;DHT22;63134;52.020;4.714;2023-10-08T17:24:22;18.10;79.60
22787;DHT22;63134;52.020;4.714;2023-10-08T17:27:08;18.00;79.90
22787;DHT22;63134;52.020;4.714;2023-10-08T17:29:59;18.00;80.20
22787;DHT22;63134;52.020;4.714;2023-10-08T17:32:46;17.90;80.40
22787;DHT22;63134;52.020;4.714;2023-10-08T17:35:33;17.80;80.70
22787;DHT22;63134;52.020;4.714;2023-10-08T17:38:20;17.70;82.00
22787;DHT22;63134;52.020;4.714;2023-10-08T17:41:05;17.70;82.00
22787;DHT22;63134;52.020;4.714;2023-10-08T17:43:53;17.70;82.50
22787;DHT22;63134;52.020;4.714;2023-10-08T17:46:39;17.60;82.90
22787;DHT22;63134;52.020;4.714;2023-10-08T17:49:25;17.50;83.20
22787;DHT22;63134;52.020;4.714;2023-10-08T17:52:14;17.40;83.70
22787;DHT22;63134;52.020;4.714;2023-10-08T17:54:59;17.30;83.80